Terminal Aerodrome Forecast
Issued by NWS Charleston, WV

Current Version | Previous Version | Graphics & Text | Print | Product List | Glossary On
Versions: 1 2 3 4 5 6 7 8 9 10 11 12 13 14 15 16 17 18 19 20 21 22 23 24
314
FTUS41 KRLX 280900 AAA
TAFBKW
TAF AMD
KBKW 280900Z 2809/2906 00000KT P6SM SKC
     FM281700 19006KT P6SM FEW250
     FM290000 00000KT P6SM SCT080 SCT250
     FM290500 00000KT 5SM BR BKN060=

USA.gov is the U.S. government's official web portal to all federal, state and local government web resources and services.